Molina, CO (81646)

7:00 PM MDT on July 24, 2016 (GMT -0600)
Eagalite | | Change Station

Elev 5945 ft 39.23 °N, 108.00 °W | Updated 11 seconds ago

Clear
Clear
89.9 °F
Feels Like 88 °F
N
3.5
Wind Variable Wind from West
Gusts 3.5 mph

Today
High -- | Low -- °F
--% Chance of Precip.
Yesterday
High -- | Low -- °F
Precip. -- in
Pressure 29.75 in
Visibility 10.0 miles
Clouds Clear
Heat Index 88 °F
Dew Point 55 °F
Humidity 31%
Rainfall 0.00 in
Snow Depth Not available.
6:06 AM 8:30 PM
Waning Gibbous, 71% visible
METAR KGJT 250053Z VRB04KT 10SM CLR 36/M02 A3000 RMK AO2 SLP072 T03611022
Pressure 29.75 in
Visibility 10.0 miles
Clouds Clear
Heat Index 88 °F
Dew Point 55 °F
Humidity 31%
Rainfall 0.00 in
Snow Depth Not available.
6:06 AM 8:30 PM
Waning Gibbous, 71% visible
METAR KGJT 250053Z VRB04KT 10SM CLR 36/M02 A3000 RMK AO2 SLP072 T03611022

10-Day Weather Forecast

Almanac

Astronomy

Jul. 24, 2016 Rise Set
Actual Time
Civil Twilight
Nautical Twilight
Astronomical Twilight
Moon
Length of Visible Light
Length of Day
Tomorrow will be .
, % of the Moon is Illuminated

Today's Extremes

State Highs State Lows

Community

WunderPhotos

Upload Photos

1,927,218 photos uploaded!

WunderBlog® & News

Nearby

Air Quality

  Air Quality AQ Index Pollutant
Not available.

Snow Depth

Station Depth Elevation

Earthquake Activity

City Distance Mag. Time & Date
Minimum magnitude displayed is 2.5.

Coastal Water Temperatures

Place Temperature

Stations

Nearby Weather Stations

Station Location Temp. Windchill Dew Point Humidity Wind Precip. Elev Updated Type
                   

Watches & Warnings

There are currently no watches in effect.